Terminal Aerodrome Forecast
Issued by NWS Bismarck, ND

Home | Current Version | Previous Version | Graphics & Text | Print | Product List | Glossary On
Versions: 1 2 3 4 5 6 7 8 9 10 11 12 13 14 15 16 17 18 19 20 21 22
499
FTUS43 KBIS 272320
TAFISN
TAF
KISN 272320Z 2800/2824 07011KT P6SM VCSH OVC060
     FM280900 07008KT 5SM BR OVC025
     FM281000 08008KT 2SM BR OVC010
     FM281600 11007KT P6SM BKN015
     FM282200 12006KT P6SM BKN040=

USA.gov is the U.S. government's official web portal to all federal, state and local government web resources and services.